Terminal Aerodrome Forecast
Issued by NWS Wilmington, OH

Current Version | Previous Version | Graphics & Text | Print | Product List | Glossary On
Versions: 1 2 3 4 5 6 7 8 9 10 11 12 13 14 15 16 17 18 19
794
FTUS41 KILN 050330 AAA
TAFDAY
TAF AMD
KDAY 050330Z 0504/0524 26010G18KT P6SM OVC004
      TEMPO 0504/0506 SCT004 OVC012
     FM050600 28012G18KT P6SM OVC012
     FM051400 VRB04KT P6SM BKN012
     FM051700 12006KT P6SM SCT015 BKN200
     FM052300 VRB04KT P6SM BKN250=

USA.gov is the U.S. government's official web portal to all federal, state and local government web resources and services.